ANA1205 RJFF-ROAH
Flight info
| Callsign | ANA1205 |
|---|---|
| Flight time | N/A |
| Altitude | 38000 |
| Route | VEMRA Y506 HKC Y45 ONC Y525 IHEYA |
| Aircraft | B772/H-SDE2E3FGHIJ5LORVWXY/LB1D1 |
Departure
| Time | N/A |
|---|---|
| Airport | Fukuoka Airport (RJFF) |
Arrival
| Time | 2026-05-04 05:21 |
|---|---|
| Airport | Naha International Airport (ROAH) |
| Time | Latitude | Longitude | Altitude | Speed | Heading |
|---|---|---|---|---|---|
| 2026-05-04 04:15 | 30.58033 | 130.07255 | 38065 ft | 422 kts | 211° |
| 2026-05-04 04:15 | 30.55300 | 130.06002 | 38066 ft | 422 kts | 210° |
| 2026-05-04 04:15 | 30.49818 | 130.03520 | 38071 ft | 423 kts | 210° |
| 2026-05-04 04:16 | 30.44332 | 130.01039 | 38073 ft | 423 kts | 210° |
| 2026-05-04 04:16 | 30.38842 | 129.98554 | 38076 ft | 424 kts | 210° |
| 2026-05-04 04:17 | 30.33336 | 129.96073 | 38072 ft | 425 kts | 210° |
| 2026-05-04 04:17 | 30.27791 | 129.93743 | 38076 ft | 427 kts | 208° |
| 2026-05-04 04:18 | 30.22185 | 129.91440 | 38076 ft | 427 kts | 208° |
| 2026-05-04 04:18 | 30.16583 | 129.89121 | 38083 ft | 428 kts | 208° |
| 2026-05-04 04:19 | 30.10974 | 129.86790 | 38078 ft | 428 kts | 208° |
| 2026-05-04 04:19 | 30.05359 | 129.84457 | 38078 ft | 429 kts | 208° |
| 2026-05-04 04:20 | 30.00683 | 129.82518 | 38078 ft | 429 kts | 208° |
| 2026-05-04 04:20 | 29.95120 | 129.80048 | 38080 ft | 428 kts | 210° |
| 2026-05-04 04:21 | 29.89598 | 129.77463 | 38080 ft | 428 kts | 210° |
| 2026-05-04 04:21 | 29.84063 | 129.74887 | 38095 ft | 429 kts | 210° |
| 2026-05-04 04:22 | 29.78512 | 129.72329 | 38093 ft | 430 kts | 210° |
| 2026-05-04 04:22 | 29.72948 | 129.69777 | 38089 ft | 430 kts | 210° |
| 2026-05-04 04:23 | 29.67419 | 129.67244 | 38084 ft | 431 kts | 210° |
| 2026-05-04 04:23 | 29.61845 | 129.64694 | 38092 ft | 431 kts | 210° |
| 2026-05-04 04:24 | 29.56264 | 129.62142 | 38094 ft | 431 kts | 210° |
| 2026-05-04 04:24 | 29.50681 | 129.59592 | 38091 ft | 432 kts | 210° |
| 2026-05-04 04:25 | 29.45096 | 129.57045 | 38099 ft | 432 kts | 209° |
| 2026-05-04 04:25 | 29.39502 | 129.54496 | 38101 ft | 432 kts | 209° |
| 2026-05-04 04:26 | 29.33910 | 129.51951 | 38093 ft | 433 kts | 209° |
| 2026-05-04 04:26 | 29.28234 | 129.49558 | 38092 ft | 435 kts | 207° |
| 2026-05-04 04:27 | 29.22506 | 129.47272 | 38088 ft | 436 kts | 207° |
| 2026-05-04 04:27 | 29.16786 | 129.44967 | 38091 ft | 436 kts | 207° |
| 2026-05-04 04:28 | 29.11064 | 129.42642 | 38086 ft | 436 kts | 207° |
| 2026-05-04 04:28 | 29.05375 | 129.40328 | 38101 ft | 437 kts | 207° |
| 2026-05-04 04:29 | 28.99632 | 129.37997 | 38096 ft | 438 kts | 207° |
| 2026-05-04 04:29 | 28.93935 | 129.35578 | 38103 ft | 436 kts | 208° |
| 2026-05-04 04:30 | 28.88276 | 129.33065 | 38099 ft | 437 kts | 208° |
| 2026-05-04 04:30 | 28.82596 | 129.30554 | 38100 ft | 438 kts | 208° |
| 2026-05-04 04:31 | 28.76906 | 129.28058 | 38095 ft | 438 kts | 208° |
| 2026-05-04 04:31 | 28.71205 | 129.25566 | 38100 ft | 439 kts | 208° |
| 2026-05-04 04:32 | 28.65498 | 129.23075 | 38095 ft | 439 kts | 208° |
| 2026-05-04 04:32 | 28.59826 | 129.20600 | 38102 ft | 440 kts | 207° |
| 2026-05-04 04:33 | 28.54113 | 129.18110 | 38102 ft | 440 kts | 207° |
| 2026-05-04 04:33 | 28.48389 | 129.15618 | 38102 ft | 441 kts | 207° |
| 2026-05-04 04:34 | 28.42658 | 129.13125 | 38102 ft | 441 kts | 207° |
| 2026-05-04 04:34 | 28.36919 | 129.10626 | 38106 ft | 441 kts | 207° |
| 2026-05-04 04:35 | 28.31180 | 129.08126 | 38100 ft | 442 kts | 207° |
| 2026-05-04 04:35 | 28.25430 | 129.05625 | 38101 ft | 442 kts | 207° |
| 2026-05-04 04:36 | 28.19679 | 129.03127 | 38107 ft | 443 kts | 207° |
| 2026-05-04 04:36 | 28.13914 | 129.00613 | 38103 ft | 443 kts | 207° |
| 2026-05-04 04:37 | 28.02501 | 128.95394 | 38104 ft | 444 kts | 208° |
| 2026-05-04 04:38 | 27.96761 | 128.92780 | 38116 ft | 445 kts | 207° |
| 2026-05-04 04:38 | 27.91013 | 128.90170 | 38101 ft | 445 kts | 207° |
| 2026-05-04 04:39 | 27.85223 | 128.87636 | 38102 ft | 447 kts | 206° |
| 2026-05-04 04:39 | 27.79388 | 128.85180 | 38103 ft | 448 kts | 206° |
| 2026-05-04 04:40 | 27.73546 | 128.82714 | 38101 ft | 449 kts | 206° |
| 2026-05-04 04:40 | 27.67693 | 128.80232 | 38106 ft | 450 kts | 206° |
| 2026-05-04 04:41 | 27.61830 | 128.77743 | 38102 ft | 451 kts | 206° |
| 2026-05-04 04:41 | 27.55954 | 128.75253 | 38105 ft | 451 kts | 206° |
| 2026-05-04 04:42 | 27.50069 | 128.72762 | 38097 ft | 452 kts | 206° |
| 2026-05-04 04:42 | 27.44591 | 128.69568 | 38110 ft | 439 kts | 223° |
| 2026-05-04 04:43 | 27.40422 | 128.64657 | 38094 ft | 431 kts | 239° |
| 2026-05-04 04:43 | 27.37375 | 128.58851 | 38103 ft | 432 kts | 242° |
| 2026-05-04 04:44 | 27.34374 | 128.52987 | 38100 ft | 434 kts | 242° |
| 2026-05-04 04:44 | 27.31320 | 128.47125 | 38095 ft | 436 kts | 241° |
| 2026-05-04 04:45 | 27.29774 | 128.44185 | 37916 ft | 439 kts | 241° |
| 2026-05-04 04:45 | 27.28202 | 128.41201 | 36776 ft | 442 kts | 241° |
| 2026-05-04 04:45 | 27.26654 | 128.38274 | 35969 ft | 433 kts | 241° |
| 2026-05-04 04:47 | 27.17083 | 128.20229 | 31045 ft | 463 kts | 240° |
| 2026-05-04 04:47 | 27.15432 | 128.17110 | 30336 ft | 467 kts | 240° |
| 2026-05-04 04:47 | 27.13764 | 128.13962 | 29532 ft | 469 kts | 240° |
| 2026-05-04 04:47 | 27.12087 | 128.10808 | 28699 ft | 471 kts | 240° |
| 2026-05-04 04:48 | 27.10427 | 128.07703 | 27816 ft | 450 kts | 240° |
| 2026-05-04 04:49 | 27.04531 | 127.96723 | 25154 ft | 389 kts | 240° |
| 2026-05-04 04:49 | 27.03016 | 127.94239 | 24505 ft | 385 kts | 230° |
| 2026-05-04 04:49 | 27.00931 | 127.92359 | 23867 ft | 387 kts | 215° |
| 2026-05-04 04:49 | 26.98485 | 127.91088 | 23181 ft | 388 kts | 205° |
| 2026-05-04 04:50 | 26.95859 | 127.90370 | 22536 ft | 391 kts | 191° |
| 2026-05-04 04:50 | 26.93144 | 127.90389 | 21945 ft | 389 kts | 185° |
| 2026-05-04 04:50 | 26.90452 | 127.90519 | 21350 ft | 387 kts | 184° |
| 2026-05-04 04:50 | 26.87751 | 127.90654 | 20777 ft | 391 kts | 184° |
| 2026-05-04 04:51 | 26.85004 | 127.90776 | 20196 ft | 398 kts | 184° |
| 2026-05-04 04:51 | 26.82259 | 127.90877 | 19583 ft | 389 kts | 184° |
| 2026-05-04 04:51 | 26.79633 | 127.90963 | 19009 ft | 374 kts | 185° |
| 2026-05-04 04:51 | 26.77084 | 127.91039 | 18460 ft | 360 kts | 185° |
| 2026-05-04 04:52 | 26.74610 | 127.91108 | 17864 ft | 351 kts | 185° |
| 2026-05-04 04:52 | 26.72154 | 127.91171 | 17338 ft | 359 kts | 185° |
| 2026-05-04 04:52 | 26.69587 | 127.91230 | 16796 ft | 378 kts | 184° |
| 2026-05-04 04:52 | 26.66935 | 127.91299 | 16216 ft | 382 kts | 184° |
| 2026-05-04 04:53 | 26.64281 | 127.91376 | 15649 ft | 380 kts | 184° |
| 2026-05-04 04:53 | 26.61636 | 127.91455 | 15093 ft | 378 kts | 183° |
| 2026-05-04 04:53 | 26.59081 | 127.91534 | 14530 ft | 359 kts | 183° |
| 2026-05-04 04:53 | 26.56597 | 127.91612 | 13994 ft | 357 kts | 183° |
| 2026-05-04 04:54 | 26.54098 | 127.91683 | 13309 ft | 360 kts | 183° |
| 2026-05-04 04:54 | 26.51592 | 127.91754 | 12715 ft | 363 kts | 183° |
| 2026-05-04 04:54 | 26.49103 | 127.91834 | 12133 ft | 347 kts | 183° |
| 2026-05-04 04:54 | 26.46748 | 127.91913 | 11597 ft | 330 kts | 183° |
| 2026-05-04 04:55 | 26.44539 | 127.91980 | 11203 ft | 303 kts | 183° |
| 2026-05-04 04:55 | 26.42517 | 127.92037 | 10999 ft | 278 kts | 183° |
| 2026-05-04 04:55 | 26.40613 | 127.92087 | 10989 ft | 274 kts | 184° |
| 2026-05-04 04:55 | 26.38755 | 127.91847 | 10963 ft | 265 kts | 202° |
| 2026-05-04 04:56 | 26.37065 | 127.91047 | 10732 ft | 263 kts | 207° |
| 2026-05-04 04:56 | 26.35400 | 127.90182 | 10306 ft | 266 kts | 207° |
| 2026-05-04 04:56 | 26.33747 | 127.89322 | 9861 ft | 253 kts | 207° |
| 2026-05-04 04:56 | 26.32189 | 127.88516 | 9533 ft | 247 kts | 207° |
| 2026-05-04 04:57 | 26.30585 | 127.87685 | 9224 ft | 259 kts | 207° |
| 2026-05-04 04:57 | 26.28931 | 127.86833 | 8898 ft | 263 kts | 207° |
| 2026-05-04 04:57 | 26.27316 | 127.86006 | 8546 ft | 250 kts | 207° |
| 2026-05-04 04:57 | 26.25739 | 127.85199 | 8259 ft | 249 kts | 207° |
| 2026-05-04 04:58 | 26.24226 | 127.84425 | 7797 ft | 236 kts | 207° |
| 2026-05-04 04:58 | 26.22732 | 127.83661 | 7122 ft | 231 kts | 207° |
| 2026-05-04 04:58 | 26.21310 | 127.82936 | 6504 ft | 226 kts | 207° |
| 2026-05-04 04:58 | 26.19884 | 127.82208 | 5802 ft | 224 kts | 207° |
| 2026-05-04 04:59 | 26.18470 | 127.81486 | 5098 ft | 222 kts | 207° |
| 2026-05-04 04:59 | 26.17068 | 127.80770 | 4364 ft | 222 kts | 206° |
| 2026-05-04 04:59 | 26.15673 | 127.80059 | 3613 ft | 221 kts | 206° |
| 2026-05-04 04:59 | 26.14276 | 127.79346 | 2866 ft | 220 kts | 206° |
| 2026-05-04 05:00 | 26.12893 | 127.78643 | 2333 ft | 216 kts | 206° |
| 2026-05-04 05:00 | 26.11527 | 127.77947 | 2135 ft | 217 kts | 205° |
| 2026-05-04 05:00 | 26.08727 | 127.76521 | 1959 ft | 223 kts | 205° |
| 2026-05-04 05:01 | 26.07360 | 127.75826 | 1938 ft | 209 kts | 205° |
| 2026-05-04 05:01 | 26.06147 | 127.75071 | 1930 ft | 193 kts | 222° |
| 2026-05-04 05:01 | 26.05384 | 127.73854 | 1959 ft | 197 kts | 239° |
| 2026-05-04 05:01 | 26.04985 | 127.72388 | 1941 ft | 200 kts | 258° |
| 2026-05-04 05:02 | 26.04909 | 127.70837 | 1964 ft | 201 kts | 262° |
| 2026-05-04 05:02 | 26.04867 | 127.69313 | 1947 ft | 192 kts | 262° |
| 2026-05-04 05:02 | 26.04825 | 127.67871 | 1929 ft | 181 kts | 261° |
| 2026-05-04 05:02 | 26.04791 | 127.66493 | 1938 ft | 177 kts | 266° |
| 2026-05-04 05:03 | 26.05204 | 127.65148 | 1922 ft | 195 kts | 297° |
| 2026-05-04 05:03 | 26.06150 | 127.64034 | 1784 ft | 203 kts | 317° |
| 2026-05-04 05:04 | 26.10534 | 127.63585 | 1347 ft | 215 kts | 355° |
| 2026-05-04 05:04 | 26.12042 | 127.63570 | 1301 ft | 219 kts | 358° |
| 2026-05-04 05:04 | 26.13578 | 127.63567 | 967 ft | 219 kts | 354° |
| 2026-05-04 05:06 | 26.22018 | 127.60173 | 1170 ft | 258 kts | 301° |
| 2026-05-04 05:06 | 26.23105 | 127.58576 | 1150 ft | 260 kts | 301° |
| 2026-05-04 05:06 | 26.24203 | 127.56970 | 1152 ft | 259 kts | 303° |
| 2026-05-04 05:07 | 26.25304 | 127.55393 | 1143 ft | 257 kts | 303° |
| 2026-05-04 05:07 | 26.26406 | 127.53833 | 1154 ft | 256 kts | 302° |
| 2026-05-04 05:07 | 26.27516 | 127.52265 | 1143 ft | 260 kts | 302° |
| 2026-05-04 05:09 | 26.31254 | 127.39066 | 1944 ft | 231 kts | 215° |
| 2026-05-04 05:09 | 26.29874 | 127.38169 | 1961 ft | 233 kts | 207° |
| 2026-05-04 05:10 | 26.28341 | 127.37531 | 1977 ft | 238 kts | 197° |
| 2026-05-04 05:10 | 26.26715 | 127.37137 | 1966 ft | 239 kts | 192° |
| 2026-05-04 05:10 | 26.25068 | 127.36856 | 1962 ft | 239 kts | 191° |
| 2026-05-04 05:10 | 26.23419 | 127.36628 | 1958 ft | 239 kts | 188° |
| 2026-05-04 05:11 | 26.21775 | 127.36499 | 1863 ft | 240 kts | 185° |
| 2026-05-04 05:11 | 26.20125 | 127.36488 | 1992 ft | 244 kts | 182° |
| 2026-05-04 05:11 | 26.18392 | 127.36584 | 2000 ft | 249 kts | 179° |
| 2026-05-04 05:11 | 26.16667 | 127.36824 | 1979 ft | 249 kts | 174° |
| 2026-05-04 05:12 | 26.14963 | 127.37226 | 1964 ft | 250 kts | 169° |
| 2026-05-04 05:12 | 26.13288 | 127.37763 | 1969 ft | 251 kts | 166° |
| 2026-05-04 05:12 | 26.11641 | 127.38425 | 1964 ft | 252 kts | 162° |
| 2026-05-04 05:12 | 26.10028 | 127.39213 | 1952 ft | 253 kts | 159° |
| 2026-05-04 05:13 | 26.08469 | 127.40123 | 1959 ft | 252 kts | 155° |
| 2026-05-04 05:13 | 26.06977 | 127.41137 | 1955 ft | 249 kts | 147° |
| 2026-05-04 05:13 | 26.05813 | 127.42597 | 1973 ft | 260 kts | 128° |
| 2026-05-04 05:13 | 26.04842 | 127.44327 | 1971 ft | 264 kts | 125° |
| 2026-05-04 05:14 | 26.03899 | 127.46064 | 1956 ft | 261 kts | 126° |
| 2026-05-04 05:14 | 26.02952 | 127.47758 | 1956 ft | 253 kts | 127° |
| 2026-05-04 05:14 | 26.02028 | 127.49362 | 1953 ft | 239 kts | 127° |
| 2026-05-04 05:14 | 26.01140 | 127.50871 | 1948 ft | 227 kts | 128° |
| 2026-05-04 05:15 | 26.00290 | 127.52297 | 1940 ft | 219 kts | 128° |
| 2026-05-04 05:15 | 25.99454 | 127.53691 | 1960 ft | 215 kts | 128° |
| 2026-05-04 05:15 | 25.98619 | 127.55080 | 1955 ft | 217 kts | 129° |
| 2026-05-04 05:15 | 25.97784 | 127.56473 | 1966 ft | 216 kts | 127° |
| 2026-05-04 05:16 | 25.97298 | 127.58045 | 1955 ft | 226 kts | 94° |
| 2026-05-04 05:16 | 25.97742 | 127.59724 | 1967 ft | 235 kts | 54° |
| 2026-05-04 05:16 | 25.98999 | 127.60800 | 1946 ft | 225 kts | 26° |
| 2026-05-04 05:16 | 26.00374 | 127.61547 | 1971 ft | 215 kts | 26° |
| 2026-05-04 05:17 | 26.01693 | 127.62283 | 1952 ft | 206 kts | 26° |
| 2026-05-04 05:17 | 26.02939 | 127.62990 | 1930 ft | 196 kts | 26° |
| 2026-05-04 05:17 | 26.04125 | 127.63630 | 1898 ft | 182 kts | 15° |
| 2026-05-04 05:17 | 26.05333 | 127.63804 | 1679 ft | 172 kts | 359° |
| 2026-05-04 05:18 | 26.06519 | 127.63858 | 1325 ft | 168 kts | 356° |
| 2026-05-04 05:18 | 26.07684 | 127.63832 | 1281 ft | 167 kts | 353° |
| 2026-05-04 05:18 | 26.08842 | 127.63782 | 1293 ft | 167 kts | 354° |
| 2026-05-04 05:18 | 26.09962 | 127.63730 | 1286 ft | 154 kts | 353° |
| 2026-05-04 05:19 | 26.11005 | 127.63679 | 1278 ft | 151 kts | 353° |
| 2026-05-04 05:19 | 26.12076 | 127.63629 | 1277 ft | 154 kts | 353° |
| 2026-05-04 05:19 | 26.13170 | 127.63575 | 1082 ft | 159 kts | 353° |
| 2026-05-04 05:19 | 26.14231 | 127.63523 | 776 ft | 142 kts | 357° |
| 2026-05-04 05:20 | 26.15118 | 127.63482 | 613 ft | 119 kts | 358° |
| 2026-05-04 05:20 | 26.15977 | 127.63427 | 431 ft | 128 kts | 2° |
| 2026-05-04 05:20 | 26.16849 | 127.63392 | 246 ft | 126 kts | 1° |
| 2026-05-04 05:20 | 26.17711 | 127.63361 | 98 ft | 119 kts | 359° |
| 2026-05-04 05:21 | 26.18496 | 127.63326 | 23 ft | 103 kts | 358° |
| 2026-05-04 05:21 | 26.19074 | 127.63301 | 19 ft | 61 kts | 358° |
| 2026-05-04 05:21 | 26.19363 | 127.63314 | 21 ft | 33 kts | 14° |
| 2026-05-04 05:21 | 26.19554 | 127.63404 | 25 ft | 26 kts | 28° |
| 2026-05-04 05:22 | 26.19714 | 127.63458 | 23 ft | 24 kts | 2° |
| 2026-05-04 05:22 | 26.19883 | 127.63454 | 23 ft | 24 kts | 358° |
| 2026-05-04 05:22 | 26.20052 | 127.63444 | 22 ft | 24 kts | 356° |
| 2026-05-04 05:22 | 26.20217 | 127.63437 | 23 ft | 20 kts | 357° |
| 2026-05-04 05:23 | 26.20302 | 127.63515 | 21 ft | 17 kts | 86° |
| 2026-05-04 05:23 | 26.20308 | 127.63648 | 25 ft | 17 kts | 88° |
| 2026-05-04 05:23 | 26.20311 | 127.63780 | 21 ft | 17 kts | 89° |
| 2026-05-04 05:23 | 26.20315 | 127.63913 | 23 ft | 17 kts | 86° |
| 2026-05-04 05:24 | 26.20320 | 127.64045 | 25 ft | 17 kts | 88° |
| 2026-05-04 05:24 | 26.20327 | 127.64177 | 23 ft | 17 kts | 86° |
| 2026-05-04 05:24 | 26.20352 | 127.64294 | 26 ft | 15 kts | 44° |
| 2026-05-04 05:24 | 26.20452 | 127.64313 | 23 ft | 15 kts | 357° |
| 2026-05-04 05:25 | 26.20554 | 127.64312 | 22 ft | 12 kts | 9° |
| 2026-05-04 05:25 | 26.20610 | 127.64372 | 22 ft | 13 kts | 74° |
| 2026-05-04 05:25 | 26.20616 | 127.64431 | 20 ft | 0 kts | 87° |
| 2026-05-04 05:25 | 26.20616 | 127.64432 | 20 ft | 2 kts | 87° |
| 2026-05-04 05:26 | 26.20618 | 127.64487 | 24 ft | 12 kts | 87° |
| 2026-05-04 05:26 | 26.20622 | 127.64619 | 23 ft | 19 kts | 88° |
| 2026-05-04 05:26 | 26.20638 | 127.64750 | 26 ft | 15 kts | 62° |
| 2026-05-04 05:26 | 26.20704 | 127.64832 | 27 ft | 7 kts | 47° |
| 2026-05-04 05:27 | 26.20718 | 127.64850 | 30 ft | 0 kts | 47° |